createdAt,value
2023-04-06T00:02:14.207Z,5.80
2023-04-06T00:04:42.252Z,5.70
2023-04-06T00:07:10.229Z,5.70
2023-04-06T00:09:38.146Z,5.70
2023-04-06T00:12:06.580Z,5.80
2023-04-06T00:14:34.505Z,5.80
2023-04-06T00:17:03.932Z,5.80
2023-04-06T00:19:31.904Z,5.90
2023-04-06T00:22:03.200Z,5.90
2023-04-06T00:24:31.213Z,5.90
2023-04-06T00:26:59.088Z,5.90
2023-04-06T00:29:30.530Z,5.90
2023-04-06T00:32:04.917Z,5.90
2023-04-06T00:34:44.912Z,5.90
2023-04-06T00:37:13.516Z,5.80
2023-04-06T00:39:41.394Z,5.80
2023-04-06T00:42:14.430Z,5.80
2023-04-06T00:44:42.554Z,5.80
2023-04-06T00:47:10.675Z,5.80
2023-04-06T00:49:39.964Z,5.80
2023-04-06T00:52:08.370Z,5.70
2023-04-06T00:54:36.245Z,5.70
2023-04-06T00:57:04.205Z,5.60
2023-04-06T00:59:32.420Z,5.60
2023-04-06T01:02:00.541Z,5.60
2023-04-06T01:04:29.024Z,5.50
2023-04-06T01:06:58.332Z,5.50
2023-04-06T01:09:26.296Z,5.50
2023-04-06T01:11:54.224Z,5.50
2023-04-06T01:14:22.735Z,5.50
2023-04-06T01:16:50.768Z,5.50
2023-04-06T01:19:18.732Z,5.50
2023-04-06T01:21:46.784Z,5.50
2023-04-06T01:24:16.125Z,5.50
2023-04-06T01:26:48.064Z,5.50
2023-04-06T01:29:17.091Z,5.50
2023-04-06T01:31:45.113Z,5.50
2023-04-06T01:34:12.991Z,5.50
2023-04-06T01:36:41.191Z,5.50
2023-04-06T01:39:09.276Z,5.50
2023-04-06T01:41:38.752Z,5.50
2023-04-06T01:44:07.140Z,5.50
2023-04-06T01:46:35.167Z,5.50
2023-04-06T01:49:03.126Z,5.50
2023-04-06T01:51:31.119Z,5.50
2023-04-06T01:53:59.016Z,5.60
2023-04-06T01:56:27.455Z,5.60
2023-04-06T01:58:57.692Z,5.60
2023-04-06T02:01:29.089Z,5.60
2023-04-06T02:03:59.132Z,5.60
2023-04-06T02:09:09.793Z,5.50
2023-04-06T02:11:39.913Z,5.50
2023-04-06T02:14:20.213Z,5.50
2023-04-06T02:16:58.273Z,5.50
2023-04-06T02:19:26.244Z,5.50
2023-04-06T02:21:54.126Z,5.50
2023-04-06T02:24:22.010Z,5.50
2023-04-06T02:26:49.856Z,5.50
2023-04-06T02:29:21.152Z,5.50
2023-04-06T02:31:49.183Z,5.40
2023-04-06T02:34:19.273Z,5.40
2023-04-06T02:36:48.589Z,5.40
2023-04-06T02:39:16.663Z,5.40
2023-04-06T02:41:49.824Z,5.40
2023-04-06T02:44:17.731Z,5.40
2023-04-06T02:46:55.362Z,5.50
2023-04-06T02:49:23.257Z,5.50
2023-04-06T02:51:51.387Z,5.50
2023-04-06T02:54:19.299Z,5.50
2023-04-06T02:56:47.254Z,5.50
2023-04-06T02:59:15.620Z,5.50
2023-04-06T03:01:43.598Z,5.50
2023-04-06T03:04:16.379Z,5.50
2023-04-06T03:06:51.457Z,5.40
2023-04-06T03:09:23.449Z,5.50
2023-04-06T03:11:51.407Z,5.50
2023-04-06T03:14:22.622Z,5.50
2023-04-06T03:16:52.883Z,5.50
2023-04-06T03:19:22.199Z,5.50
2023-04-06T03:21:50.191Z,5.50
2023-04-06T03:24:18.065Z,5.50
2023-04-06T03:26:46.043Z,5.50
2023-04-06T03:29:13.990Z,5.40
2023-04-06T03:31:41.978Z,5.40
2023-04-06T03:34:10.252Z,5.40
2023-04-06T03:36:39.552Z,5.40
2023-04-06T03:39:07.910Z,5.40
2023-04-06T03:41:36.177Z,5.40
2023-04-06T03:44:04.094Z,5.40
2023-04-06T03:46:36.344Z,5.50
2023-04-06T03:49:04.269Z,5.50
2023-04-06T03:51:32.134Z,5.50
2023-04-06T03:54:01.406Z,5.50
2023-04-06T03:56:29.353Z,5.50
2023-04-06T03:59:05.702Z,5.50
2023-04-06T04:01:34.540Z,5.60
2023-04-06T04:04:02.559Z,5.60
2023-04-06T04:06:32.856Z,5.60
2023-04-06T04:09:02.142Z,5.60
2023-04-06T04:11:33.296Z,5.60
2023-04-06T04:14:01.216Z,5.70
2023-04-06T04:16:30.302Z,5.70
2023-04-06T04:18:59.063Z,5.60
2023-04-06T04:21:41.048Z,5.60
2023-04-06T04:24:13.077Z,5.60
2023-04-06T04:26:41.531Z,5.60
2023-04-06T04:29:13.419Z,5.60
2023-04-06T04:31:45.496Z,5.60
2023-04-06T04:34:17.858Z,5.60
2023-04-06T04:37:18.897Z,5.50
2023-04-06T04:39:49.321Z,5.50
2023-04-06T04:42:19.423Z,5.50
2023-04-06T04:44:47.410Z,5.50
2023-04-06T04:47:15.464Z,5.50
2023-04-06T04:49:44.167Z,5.40
2023-04-06T04:52:12.039Z,5.40
2023-04-06T04:54:41.992Z,5.40
2023-04-06T04:57:11.267Z,5.40
2023-04-06T04:59:39.258Z,5.40
2023-04-06T05:02:07.285Z,5.30
2023-04-06T05:04:35.288Z,5.30
2023-04-06T05:07:07.095Z,5.30
2023-04-06T05:09:36.791Z,5.20
2023-04-06T05:12:05.432Z,5.30
2023-04-06T05:14:35.081Z,5.30
2023-04-06T05:17:03.063Z,5.30
2023-04-06T05:19:32.242Z,5.30
2023-04-06T05:22:00.501Z,5.30
2023-04-06T05:24:28.574Z,5.30
2023-04-06T05:26:57.606Z,5.30
2023-04-06T05:29:25.538Z,5.30
2023-04-06T05:31:54.823Z,5.30
2023-04-06T05:34:22.885Z,5.30
2023-04-06T05:37:07.103Z,5.30
2023-04-06T05:39:35.084Z,5.30
2023-04-06T05:42:06.218Z,5.40
2023-04-06T05:47:42.407Z,5.40
2023-04-06T05:50:10.724Z,5.40
2023-04-06T05:52:38.711Z,5.50
2023-04-06T05:55:09.501Z,5.50
2023-04-06T05:57:38.517Z,5.60
2023-04-06T06:00:09.237Z,5.60
2023-04-06T06:02:37.631Z,5.60
2023-04-06T06:05:10.280Z,5.70
2023-04-06T06:07:38.400Z,5.80
2023-04-06T06:10:07.019Z,5.90
2023-04-06T06:12:34.917Z,5.90
2023-04-06T06:15:02.917Z,6.00
2023-04-06T06:17:30.888Z,6.00
2023-04-06T06:19:58.758Z,6.00
2023-04-06T06:22:28.488Z,6.00
2023-04-06T06:24:56.555Z,6.00
2023-04-06T06:27:24.475Z,6.10
2023-04-06T06:29:52.455Z,6.00
2023-04-06T06:32:21.081Z,6.00
2023-04-06T06:34:49.101Z,6.10
2023-04-06T06:37:19.066Z,6.10
2023-04-06T06:39:49.814Z,6.10
2023-04-06T06:42:20.126Z,6.10
2023-04-06T06:44:48.009Z,6.10
2023-04-06T06:47:17.341Z,6.10
2023-04-06T06:49:49.973Z,6.10
2023-04-06T06:52:19.967Z,6.20
2023-04-06T06:54:50.863Z,6.30
2023-04-06T06:57:33.912Z,6.30
2023-04-06T07:00:06.472Z,6.40
2023-04-06T07:02:36.638Z,6.50
2023-04-06T07:05:16.161Z,6.60
2023-04-06T07:07:53.971Z,6.70
2023-04-06T07:10:24.156Z,6.80
2023-04-06T07:12:53.885Z,6.80
2023-04-06T07:15:26.358Z,6.90
2023-04-06T07:17:55.519Z,7.00
2023-04-06T07:20:23.658Z,7.00
2023-04-06T07:22:51.588Z,7.00
2023-04-06T07:25:19.690Z,7.10
2023-04-06T07:27:49.093Z,7.00
2023-04-06T07:30:19.189Z,7.00
2023-04-06T07:32:47.383Z,7.00
2023-04-06T07:35:17.510Z,7.00
2023-04-06T07:37:45.400Z,7.00
2023-04-06T07:40:14.752Z,7.10
2023-04-06T07:42:42.786Z,7.10
2023-04-06T07:45:12.703Z,7.10
2023-04-06T07:47:40.702Z,7.10
2023-04-06T07:50:09.525Z,7.10
2023-04-06T07:52:38.750Z,7.20
2023-04-06T07:55:18.025Z,7.20
2023-04-06T07:57:48.163Z,7.20
2023-04-06T08:00:18.021Z,7.20
2023-04-06T08:02:50.942Z,7.20
2023-04-06T08:05:22.066Z,7.30
2023-04-06T08:07:52.201Z,7.30
2023-04-06T08:10:22.455Z,7.30
2023-04-06T08:12:50.434Z,7.40
2023-04-06T08:15:20.362Z,7.40
2023-04-06T08:17:48.339Z,7.40
2023-04-06T08:20:16.367Z,7.50
2023-04-06T08:22:44.276Z,7.50
2023-04-06T08:25:27.231Z,7.50
2023-04-06T08:27:55.436Z,7.60
2023-04-06T08:30:27.233Z,7.60
2023-04-06T08:32:55.210Z,7.60
2023-04-06T08:35:23.176Z,7.70
2023-04-06T08:37:55.202Z,7.70
2023-04-06T08:40:42.246Z,7.70
2023-04-06T08:43:32.784Z,7.80
2023-04-06T08:46:02.595Z,7.80
2023-04-06T08:48:30.634Z,7.80
2023-04-06T08:51:01.455Z,7.90
2023-04-06T08:53:29.557Z,7.90
2023-04-06T08:55:59.112Z,7.90
2023-04-06T08:58:39.590Z,8.00
2023-04-06T09:01:43.412Z,8.00
2023-04-06T09:04:29.345Z,8.10
2023-04-06T09:06:57.762Z,8.10
2023-04-06T09:09:26.167Z,8.20
2023-04-06T09:11:54.675Z,8.20
2023-04-06T09:14:38.443Z,8.30
2023-04-06T09:17:07.144Z,8.30
2023-04-06T09:19:51.467Z,8.30
2023-04-06T09:22:36.870Z,8.40
2023-04-06T09:25:05.440Z,8.40
2023-04-06T09:27:36.036Z,8.50
2023-04-06T09:30:09.274Z,8.50
2023-04-06T09:32:57.693Z,8.50
2023-04-06T09:35:28.824Z,8.50
2023-04-06T09:37:59.856Z,8.60
2023-04-06T09:40:30.251Z,8.60
2023-04-06T09:43:00.340Z,8.70
2023-04-06T09:45:33.873Z,8.70
2023-04-06T09:48:02.440Z,8.70
2023-04-06T09:50:34.604Z,8.70
2023-04-06T09:53:03.153Z,8.80
2023-04-06T09:55:36.875Z,8.90
2023-04-06T09:58:09.803Z,8.90
2023-04-06T10:00:45.582Z,9.00
2023-04-06T10:03:22.946Z,9.00
2023-04-06T10:05:59.368Z,9.10
2023-04-06T10:08:38.785Z,9.10
2023-04-06T10:11:06.760Z,9.10
2023-04-06T10:13:35.539Z,9.20
2023-04-06T10:16:03.934Z,9.20
2023-04-06T10:18:35.785Z,9.30
2023-04-06T10:21:15.321Z,9.40
2023-04-06T10:23:47.156Z,9.50
2023-04-06T10:29:06.188Z,9.60
2023-04-06T10:31:44.947Z,9.70
2023-04-06T10:34:15.566Z,9.60
2023-04-06T10:36:47.186Z,9.60
2023-04-06T10:39:19.273Z,9.50
2023-04-06T10:41:49.541Z,9.50
2023-04-06T10:44:21.858Z,9.40
2023-04-06T10:46:55.655Z,9.40
2023-04-06T10:49:28.843Z,9.50
2023-04-06T10:52:07.303Z,9.50
2023-04-06T10:54:36.587Z,9.50
2023-04-06T10:57:09.150Z,9.50
2023-04-06T10:59:56.737Z,9.50
2023-04-06T11:02:26.018Z,9.50
2023-04-06T11:05:02.059Z,9.50
2023-04-06T11:07:50.966Z,9.50
2023-04-06T11:10:24.165Z,9.50
2023-04-06T11:12:57.395Z,9.40
2023-04-06T11:15:27.932Z,9.40
2023-04-06T11:17:55.992Z,9.30
2023-04-06T11:20:24.013Z,9.30
2023-04-06T11:22:54.260Z,9.30
2023-04-06T11:25:24.530Z,9.30
2023-04-06T11:28:01.599Z,9.20
2023-04-06T11:30:29.754Z,9.20
2023-04-06T11:33:04.474Z,9.20
2023-04-06T11:35:36.919Z,9.20
2023-04-06T11:38:08.330Z,9.10
2023-04-06T11:40:36.295Z,9.10
2023-04-06T11:43:07.923Z,9.00
2023-04-06T11:45:43.256Z,9.00
2023-04-06T11:48:21.517Z,9.00
2023-04-06T11:50:50.053Z,9.00
2023-04-06T11:53:21.820Z,9.00
2023-04-06T11:56:39.770Z,9.00
2023-04-06T11:59:14.987Z,8.90
2023-04-06T12:01:47.348Z,8.90
2023-04-06T12:04:15.656Z,8.80
2023-04-06T12:06:43.720Z,8.80
2023-04-06T12:09:33.470Z,8.80
2023-04-06T12:14:36.873Z,8.80
2023-04-06T12:17:31.753Z,8.80
2023-04-06T12:20:09.538Z,8.80
2023-04-06T12:22:53.014Z,8.90
2023-04-06T12:25:29.604Z,8.90
2023-04-06T12:27:58.835Z,8.90
2023-04-06T12:30:26.714Z,8.90
2023-04-06T12:32:54.793Z,9.00
2023-04-06T12:35:23.958Z,9.00
2023-04-06T12:37:51.933Z,9.00
2023-04-06T12:43:21.665Z,9.00
2023-04-06T12:45:52.042Z,8.90
2023-04-06T12:48:20.401Z,8.80
2023-04-06T12:50:56.644Z,8.70
2023-04-06T12:53:24.662Z,8.60
2023-04-06T12:55:57.592Z,8.60
2023-04-06T12:58:30.785Z,8.50
2023-04-06T13:03:46.475Z,8.60
2023-04-06T13:06:19.984Z,8.60
2023-04-06T13:08:51.004Z,8.60
2023-04-06T13:11:21.571Z,8.60
2023-04-06T13:13:50.952Z,8.50
2023-04-06T13:16:20.037Z,8.60
2023-04-06T13:18:51.518Z,8.60
2023-04-06T13:21:21.617Z,8.60
2023-04-06T13:23:49.881Z,8.60
2023-04-06T13:26:20.619Z,8.60
2023-04-06T13:29:00.607Z,8.60
2023-04-06T13:34:10.431Z,8.50
2023-04-06T13:36:39.025Z,8.50
2023-04-06T13:39:07.021Z,8.50
2023-04-06T13:41:34.922Z,8.50
2023-04-06T13:44:04.484Z,8.50
2023-04-06T13:46:33.138Z,8.50
2023-04-06T13:49:01.080Z,8.40
2023-04-06T13:51:29.096Z,8.40
2023-04-06T13:53:56.998Z,8.40
2023-04-06T13:56:24.981Z,8.40
2023-04-06T13:58:56.810Z,8.40
2023-04-06T14:01:27.762Z,8.30
2023-04-06T14:03:55.958Z,8.30
2023-04-06T14:06:31.321Z,8.30
2023-04-06T14:09:00.392Z,8.30
2023-04-06T14:11:29.611Z,8.20
2023-04-06T14:13:58.501Z,8.20
2023-04-06T14:16:30.071Z,8.20
2023-04-06T14:19:00.548Z,8.20
2023-04-06T14:21:36.202Z,8.20
2023-04-06T14:24:04.641Z,8.20
2023-04-06T14:26:33.056Z,8.10
2023-04-06T14:29:05.580Z,8.20
2023-04-06T14:31:38.399Z,8.20
2023-04-06T14:34:06.678Z,8.20
2023-04-06T14:36:41.372Z,8.10
2023-04-06T14:39:25.796Z,8.10
2023-04-06T14:41:57.649Z,8.20
2023-04-06T14:44:28.689Z,8.10
2023-04-06T14:47:01.518Z,8.20
2023-04-06T14:49:32.151Z,8.20
2023-04-06T14:52:06.017Z,8.20
2023-04-06T14:54:36.835Z,8.10
2023-04-06T14:57:07.295Z,8.10
2023-04-06T14:59:37.925Z,8.10
2023-04-06T15:02:20.312Z,8.10
2023-04-06T15:04:51.671Z,8.20
2023-04-06T15:07:22.362Z,8.10
2023-04-06T15:09:51.867Z,8.10
2023-04-06T15:12:19.769Z,8.10
2023-04-06T15:14:52.830Z,8.10
2023-04-06T15:17:22.143Z,8.10
2023-04-06T15:19:50.097Z,8.10
2023-04-06T15:22:39.422Z,8.10
2023-04-06T15:25:11.886Z,8.10
2023-04-06T15:27:40.208Z,8.10
2023-04-06T15:30:11.622Z,8.00
2023-04-06T15:32:41.037Z,8.10
2023-04-06T15:35:12.781Z,8.10
2023-04-06T15:37:41.868Z,8.00
2023-04-06T15:40:15.537Z,8.00
2023-04-06T15:42:43.969Z,8.00
2023-04-06T15:45:12.378Z,8.00
2023-04-06T15:47:45.324Z,8.00
2023-04-06T15:50:14.194Z,8.00
2023-04-06T15:53:00.369Z,8.00
2023-04-06T15:55:30.597Z,8.00
2023-04-06T15:58:01.896Z,8.00
2023-04-06T16:00:31.535Z,8.00
2023-04-06T16:03:07.381Z,8.00
2023-04-06T16:05:48.907Z,8.00
2023-04-06T16:08:22.148Z,8.00
2023-04-06T16:11:04.982Z,8.10
2023-04-06T16:16:29.313Z,8.00
2023-04-06T16:19:00.544Z,8.10
2023-04-06T16:21:32.544Z,8.10
2023-04-06T16:27:13.102Z,8.00
2023-04-06T16:29:45.072Z,8.00
2023-04-06T16:32:25.493Z,8.00
2023-04-06T16:34:54.801Z,8.00
2023-04-06T16:37:22.787Z,8.00
2023-04-06T16:39:53.033Z,8.00
2023-04-06T16:42:21.296Z,8.10
2023-04-06T16:44:50.138Z,8.10
2023-04-06T16:47:32.119Z,8.10
2023-04-06T16:50:05.868Z,8.10
2023-04-06T16:52:34.824Z,8.10
2023-04-06T16:55:02.778Z,8.10
2023-04-06T16:57:31.147Z,8.10
2023-04-06T16:59:59.106Z,8.10
2023-04-06T17:02:28.252Z,8.20
2023-04-06T17:04:57.687Z,8.20
2023-04-06T17:07:46.664Z,8.20
2023-04-06T17:13:07.980Z,8.20
2023-04-06T17:15:40.709Z,8.20
2023-04-06T17:18:08.699Z,8.20
2023-04-06T17:20:39.674Z,8.20
2023-04-06T17:23:11.265Z,8.20
2023-04-06T17:25:39.143Z,8.20
2023-04-06T17:28:07.982Z,8.20
2023-04-06T17:30:37.353Z,8.10
2023-04-06T17:33:05.790Z,8.20
2023-04-06T17:35:35.218Z,8.10
2023-04-06T17:38:13.384Z,8.20
2023-04-06T17:40:50.792Z,8.20
2023-04-06T17:43:19.217Z,8.20
2023-04-06T17:45:54.335Z,8.20
2023-04-06T17:48:22.300Z,8.20
2023-04-06T17:50:51.299Z,8.20
2023-04-06T17:53:20.518Z,8.20
2023-04-06T17:55:51.903Z,8.20
2023-04-06T17:58:19.860Z,8.20
2023-04-06T18:00:48.789Z,8.20
2023-04-06T18:03:17.181Z,8.20
2023-04-06T18:05:46.731Z,8.20
2023-04-06T18:08:14.830Z,8.20
2023-04-06T18:10:50.975Z,8.20
2023-04-06T18:13:23.312Z,8.20
2023-04-06T18:15:55.559Z,8.20
2023-04-06T18:18:23.509Z,8.20
2023-04-06T18:20:51.373Z,8.20
2023-04-06T18:23:20.235Z,8.10
2023-04-06T18:25:49.528Z,8.10
2023-04-06T18:28:17.737Z,8.10
2023-04-06T18:30:45.630Z,8.20
2023-04-06T18:33:13.593Z,8.20
2023-04-06T18:35:43.010Z,8.20
2023-04-06T18:38:11.153Z,8.20
2023-04-06T18:40:40.379Z,8.20
2023-04-06T18:43:12.670Z,8.20
2023-04-06T18:45:43.336Z,8.20
2023-04-06T18:48:14.600Z,8.20
2023-04-06T18:50:42.765Z,8.20
2023-04-06T18:53:10.660Z,8.20
2023-04-06T18:55:38.730Z,8.20
2023-04-06T18:58:06.701Z,8.20
2023-04-06T19:00:35.960Z,8.20
2023-04-06T19:03:03.994Z,8.30
2023-04-06T19:05:32.120Z,8.30
2023-04-06T19:08:04.662Z,8.30
2023-04-06T19:10:41.630Z,8.30
2023-04-06T19:13:09.861Z,8.30
2023-04-06T19:15:42.054Z,8.30
2023-04-06T19:18:10.088Z,8.20
2023-04-06T19:20:38.052Z,8.20
2023-04-06T19:23:06.474Z,8.30
2023-04-06T19:25:37.015Z,8.30
2023-04-06T19:28:04.979Z,8.40
2023-04-06T19:30:32.936Z,8.40
2023-04-06T19:33:02.666Z,8.30
2023-04-06T19:35:30.878Z,8.40
2023-04-06T19:37:58.858Z,8.40
2023-04-06T19:40:28.053Z,8.40
2023-04-06T19:42:57.939Z,8.40
2023-04-06T19:45:26.059Z,8.40
2023-04-06T19:47:54.062Z,8.40
2023-04-06T19:50:23.639Z,8.40
2023-04-06T19:52:53.230Z,8.40
2023-04-06T19:55:21.258Z,8.40
2023-04-06T19:57:49.250Z,8.40
2023-04-06T20:00:17.686Z,8.50
2023-04-06T20:02:46.154Z,8.40
2023-04-06T20:05:14.229Z,8.50
2023-04-06T20:07:43.609Z,8.50
2023-04-06T20:10:11.737Z,8.40
2023-04-06T20:12:39.602Z,8.50
2023-04-06T20:15:08.269Z,8.50
2023-04-06T20:17:36.285Z,8.50
2023-04-06T20:20:04.646Z,8.50
2023-04-06T20:22:32.532Z,8.50
2023-04-06T20:25:01.855Z,8.50
2023-04-06T20:27:29.891Z,8.60
2023-04-06T20:29:58.346Z,8.60
2023-04-06T20:32:26.564Z,8.50
2023-04-06T20:34:54.740Z,8.60
2023-04-06T20:37:22.719Z,8.60
2023-04-06T20:39:50.645Z,8.60
2023-04-06T20:42:21.353Z,8.60
2023-04-06T20:47:34.636Z,8.60
2023-04-06T20:50:02.737Z,8.60
2023-04-06T20:52:30.631Z,8.60
2023-04-06T20:55:00.782Z,8.70
2023-04-06T20:57:33.727Z,8.70
2023-04-06T21:00:01.808Z,8.70
2023-04-06T21:02:29.827Z,8.60
2023-04-06T21:07:44.202Z,8.70
2023-04-06T21:10:13.077Z,8.70
2023-04-06T21:12:42.627Z,8.60
2023-04-06T21:15:11.766Z,8.70
2023-04-06T21:17:39.749Z,8.70
2023-04-06T21:20:09.460Z,8.70
2023-04-06T21:22:40.316Z,8.70
2023-04-06T21:25:10.301Z,8.70
2023-04-06T21:27:38.314Z,8.70
2023-04-06T21:30:09.097Z,8.70
2023-04-06T21:32:37.635Z,8.70
2023-04-06T21:35:05.996Z,8.70
2023-04-06T21:37:33.818Z,8.70
2023-04-06T21:40:02.401Z,8.80
2023-04-06T21:42:30.254Z,8.80
2023-04-06T21:44:59.081Z,8.80
2023-04-06T21:47:29.335Z,8.80
2023-04-06T21:50:01.980Z,8.80
2023-04-06T21:52:34.901Z,8.80
2023-04-06T21:55:07.251Z,8.80
2023-04-06T21:57:37.818Z,8.80
2023-04-06T22:00:11.639Z,8.90
2023-04-06T22:05:25.310Z,8.80
2023-04-06T22:07:58.208Z,8.90
2023-04-06T22:10:31.334Z,8.90
2023-04-06T22:13:02.970Z,8.90
2023-04-06T22:15:31.795Z,8.90
2023-04-06T22:18:00.930Z,8.90
2023-04-06T22:20:30.816Z,8.90
2023-04-06T22:23:03.056Z,8.90
2023-04-06T22:25:30.976Z,8.90
2023-04-06T22:27:59.369Z,8.90
2023-04-06T22:30:27.313Z,9.00
2023-04-06T22:32:55.244Z,9.00
2023-04-06T22:35:23.233Z,9.00
2023-04-06T22:37:52.593Z,9.00
2023-04-06T22:40:20.496Z,9.00
2023-04-06T22:42:48.431Z,9.00
2023-04-06T22:45:16.362Z,9.00
2023-04-06T22:47:44.435Z,8.90
2023-04-06T22:50:12.915Z,8.90
2023-04-06T22:52:40.959Z,8.90
2023-04-06T22:55:10.579Z,8.90
2023-04-06T22:57:38.474Z,8.90
2023-04-06T23:00:08.189Z,8.90
2023-04-06T23:02:36.308Z,8.90
2023-04-06T23:05:04.444Z,8.80
2023-04-06T23:07:32.934Z,8.80
2023-04-06T23:10:01.070Z,8.80
2023-04-06T23:12:30.405Z,8.80
2023-04-06T23:14:58.430Z,8.80
2023-04-06T23:17:26.477Z,8.70
2023-04-06T23:19:54.734Z,8.70
2023-04-06T23:22:22.719Z,8.70
2023-04-06T23:24:50.849Z,8.70
2023-04-06T23:27:18.811Z,8.70
2023-04-06T23:29:48.162Z,8.70
2023-04-06T23:32:16.910Z,8.60
2023-04-06T23:34:44.923Z,8.60
2023-04-06T23:37:12.956Z,8.60
2023-04-06T23:39:41.020Z,8.60
2023-04-06T23:42:08.949Z,8.60
2023-04-06T23:44:36.880Z,8.60
2023-04-06T23:47:06.256Z,8.60
2023-04-06T23:49:34.907Z,8.60
2023-04-06T23:52:02.871Z,8.70
2023-04-06T23:54:33.752Z,8.60
2023-04-06T23:57:01.980Z,8.60
2023-04-06T23:59:30.086Z,8.70
